^^
Datos históricos de la estación: Murcia-Puente Tocinos
Diario Informe para Abril 6, 2019 Unidades:  Inglés    Métrico   Ambas
Diario Semanal Mensual Anual Configurable
  Máximo: Mínimo: Media:
Temperatura: 63.9 °F 48 °F 55 °F
Punto de rocio: 46.2 °F 34.2 °F 39.6 °F
Humedad: 75% 34% 57%
Velocidad viento: 14.5mph 0mph 4.2mph
Racha viento: 27.6mph - -
Viento- - SSW
Presión: 29.7 in 29.6 in -
Precipitación: 0.12 in    
Historical Graphs
 
 
Tabla de datos para Abril 6, 2019
Hora Temperatura Punto de rocio Presión Viento Velocidad viento Racha viento Humedad Intensidad lluvia(por hora) Nubes
00:00 51.1 °F 40.1 °F 29.6 in WNW 5 mph 6 mph 66% 0 in RA
00:05 51.1 °F 39.7 °F 29.6 in NW 4.7 mph 4.6 mph 65% 0 in RA
00:10 51.1 °F 39.7 °F 29.6 in WNW 3.6 mph 3.5 mph 65% 0 in CLR
00:15 50.9 °F 39.6 °F 29.6 in WNW 3.6 mph 5.2 mph 65% 0 in CLR
00:20 50.7 °F 39.7 °F 29.6 in NW 2.9 mph 4.6 mph 66% 0 in CLR
00:25 50.7 °F 39.7 °F 29.6 in NW 2.9 mph 3.5 mph 66% 0 in CLR
00:30 50.4 °F 39.7 °F 29.6 in WNW 2.9 mph 4.6 mph 67% 0 in CLR
00:35 50.2 °F 39.6 °F 29.6 in WSW 2.9 mph 2.4 mph 67% 0 in CLR
00:40 50.2 °F 39.6 °F 29.6 in SW 2.4 mph 3.5 mph 67% 0 in CLR
00:45 50.2 °F 39.4 °F 29.6 in SSE 2.4 mph 4.6 mph 66% 0 in CLR
00:50 50.4 °F 40.6 °F 29.6 in ESE 3.6 mph 8.1 mph 69% 0 in CLR
00:55 49.8 °F 40.5 °F 29.6 in SSE 3.6 mph 6.9 mph 70% 0 in CLR
01:00 49.8 °F 40.5 °F 29.6 in SE 6 mph 7 mph 70% 0 in CLR
01:05 49.8 °F 40.5 °F 29.6 in SSE 5.4 mph 8.1 mph 70% 0 in CLR
01:10 49.8 °F 40.5 °F 29.6 in SSW 5.2 mph 6.9 mph 70% 0 in CLR
01:15 49.8 °F 40.8 °F 29.6 in SW 5.2 mph 5.8 mph 71% 0 in CLR
01:20 50 °F 40.6 °F 29.6 in WSW 4.3 mph 4.6 mph 70% 0 in CLR
01:25 50.2 °F 40.5 °F 29.6 in WSW 4.3 mph 4.6 mph 69% 0 in CLR
01:30 50.4 °F 40.6 °F 29.6 in WSW 3.1 mph 2.3 mph 69% 0 in CLR
01:35 50.4 °F 40.3 °F 29.6 in WSW 3.1 mph 3.5 mph 68% 0 in CLR
01:40 50.5 °F 40.5 °F 29.6 in WSW 1.4 mph   68% 0 in CLR
01:45 50.4 °F 40.6 °F 29.6 in ESE 1.4 mph 5.8 mph 69% 0 in CLR
01:50 49.6 °F 40.6 °F 29.6 in ESE 2.4 mph 3.5 mph 71% 0 in CLR
01:55 49.3 °F 40.6 °F 29.6 in NE 2.4 mph 4 mph 72% 0 in CLR
02:00 49.1 °F 40.8 °F 29.6 in ENE 2 mph 5 mph 73% 0 in CLR
02:05 48.9 °F 40.6 °F 29.6 in NW 2 mph 4.3 mph 73% 0 in CLR
02:10 48.9 °F 40.6 °F 29.6 in NNW 1.8 mph 4.6 mph 73% 0 in CLR
02:15 48.9 °F 40.6 °F 29.6 in NNW 1.8 mph 4.6 mph 73% 0 in CLR
02:20 48.7 °F 40.5 °F 29.6 in NW 2.9 mph 4.6 mph 73% 0 in CLR
02:25 48.7 °F 40.5 °F 29.6 in NW 2.9 mph 3.6 mph 73% 0 in CLR
02:30 48.7 °F 40.8 °F 29.6 in NNW 2 mph 4.6 mph 74% 0 in CLR
02:35 48.6 °F 41 °F 29.6 in NNW 2 mph 5.2 mph 75% 0 in CLR
02:40 48.4 °F 40.8 °F 29.6 in NNW 2.9 mph 4.6 mph 75% 0 in CLR
02:45 48.4 °F 40.8 °F 29.6 in NNW 2.9 mph 4.6 mph 75% 0 in CLR
02:50 48.4 °F 40.8 °F 29.6 in NW 2.9 mph 4.6 mph 75% 0 in CLR
02:55 48.4 °F 40.5 °F 29.6 in NW 2.9 mph 4.6 mph 74% 0 in CLR
03:00 48.6 °F 40.6 °F 29.6 in NW 3 mph 5 mph 74% 0 in CLR
03:05 48.6 °F 40.3 °F 29.6 in WNW 3.6 mph 3.5 mph 73% 0 in CLR
03:10 48.7 °F 40.1 °F 29.6 in WNW 2 mph   72% 0 in CLR
03:15 48.7 °F 40.1 °F 29.6 in WNW 2 mph 2.3 mph 72% 0 in CLR
03:20 48.9 °F 40.6 °F 29.6 in WNW 1.4 mph 4.6 mph 73% 0 in CLR
03:25 48.9 °F 41 °F 29.6 in SE 1.4 mph 3.5 mph 74% 0 in CLR
03:30 48.9 °F 40.6 °F 29.6 in SE 2 mph   73% 0 in CLR
03:35 48.9 °F 40.6 °F 29.6 in SE 2 mph   73% 0 in CLR
03:40 48.9 °F 40.6 °F 29.6 in Calm   3.5 mph 73% 0 in CLR
03:45 48.9 °F 40.3 °F 29.6 in Calm   3.5 mph 72% 0 in CLR
03:50 48.9 °F 39.9 °F 29.6 in SSW 1.8 mph 4.6 mph 71% 0 in CLR
03:55 49.5 °F 39.7 °F 29.6 in SSW 1.8 mph 4.7 mph 69% 0 in CLR
04:00 49.6 °F 39.6 °F 29.6 in South 3 mph 6 mph 68% 0 in CLR
04:05 49.8 °F 38.8 °F 29.6 in SW 3.1 mph 4.6 mph 66% 0 in CLR
04:10 50 °F 38.7 °F 29.6 in West 2.9 mph 4.6 mph 65% 0 in CLR
04:15 50.2 °F 38.5 °F 29.6 in WSW 2.9 mph 4.6 mph 64% 0 in CLR
04:20 50.2 °F 38.5 °F 29.6 in WSW 2.4 mph 5.8 mph 64% 0 in CLR
04:25 50.4 °F 38.7 °F 29.6 in West 2.4 mph 4.6 mph 64% 0 in CLR
04:30 50.4 °F 39 °F 29.6 in WNW 2 mph 3.5 mph 65% 0 in CLR
04:35 50.4 °F 38.7 °F 29.6 in West 2 mph 3.5 mph 64% 0 in CLR
04:40 50.2 °F 39.6 °F 29.6 in West 1.4 mph 3.5 mph 67% 0 in CLR
04:45 49.5 °F 39.4 °F 29.6 in West 1.4 mph 3.5 mph 68% 0 in CLR
04:50 48.9 °F 39.6 °F 29.6 in West 2 mph 2.3 mph 70% 0 in CLR
04:55 48.6 °F 39.6 °F 29.6 in West 2 mph   71% 0 in CLR
05:00 48.6 °F 39.2 °F 29.6 in Calm   5 mph 70% 0 in CLR
05:05 48.4 °F 38.7 °F 29.6 in Calm   3.6 mph 69% 0 in CLR
05:10 48.2 °F 38.5 °F 29.6 in SSE 2.4 mph 4.6 mph 69% 0 in CLR
05:15 48.2 °F 38.8 °F 29.6 in SE 2.4 mph 5.8 mph 70% 0 in CLR
05:20 48 °F 38.7 °F 29.6 in SE 3.1 mph 4.6 mph 70% 0 in CLR
05:25 48.2 °F 38.8 °F 29.6 in SE 3.1 mph 4.6 mph 70% 0 in CLR
05:30 48.2 °F 38.8 °F 29.6 in South 3.1 mph 6.4 mph 70% 0 in CLR
05:35 48.4 °F 38.7 °F 29.6 in SSW 3.1 mph 8.1 mph 69% 0 in CLR
05:40 48.4 °F 38.7 °F 29.6 in SSW 5.9 mph 9.2 mph 69% 0 in CLR
05:45 48.6 °F 38.8 °F 29.6 in SSW 5.9 mph 6.9 mph 69% 0 in CLR
05:50 48.7 °F 38.3 °F 29.6 in SW 5.4 mph 9.2 mph 67% 0 in CLR
05:55 49.5 °F 38.1 °F 29.6 in SSE 5.4 mph 6.9 mph 65% 0 in CLR
06:00 49.6 °F 38.3 °F 29.6 in South 5 mph 7 mph 65% 0 in CLR
06:05 49.5 °F 39 °F 29.6 in SSE 5.2 mph 8.1 mph 67% 0 in CLR
06:10 48.9 °F 38.8 °F 29.6 in SSE 4.7 mph 8.1 mph 68% 0 in CLR
06:15 48.6 °F 38.5 °F 29.6 in South 4.7 mph 9.2 mph 68% 0 in CLR
06:20 48.4 °F 38.3 °F 29.6 in South 5.9 mph 9.2 mph 68% 0 in CLR
06:25 48.4 °F 38.3 °F 29.6 in SSW 5.9 mph 5.8 mph 68% 0 in CLR
06:30 48.4 °F 37.9 °F 29.6 in SW 5.2 mph 5.4 mph 67% 0 in CLR
06:35 48.4 °F 38.3 °F 29.6 in SW 5.2 mph   68% 0 in CLR
06:40 48.4 °F 38.3 °F 29.6 in SW 2 mph   68% 0 in CLR
06:45 48.4 °F 38.3 °F 29.6 in SW 2 mph   68% 0 in CLR
06:50 48.4 °F 37.9 °F 29.6 in Calm   4.6 mph 67% 0 in CLR
06:55 48.4 °F 37.9 °F 29.6 in Calm   3.5 mph 67% 0 in CLR
07:00 48.6 °F 38.1 °F 29.6 in SW 2 mph 5 mph 67% 0 in CLR
07:05 48.6 °F 38.1 °F 29.6 in West 2.4 mph 5.8 mph 67% 0 in CLR
07:10 48.6 °F 38.1 °F 29.6 in WSW 3.6 mph 4.6 mph 67% 0 in CLR
07:15 48.4 °F 38.3 °F 29.6 in WSW 3.6 mph 5.8 mph 68% 0 in CLR
07:20 48.4 °F 37.9 °F 29.6 in WSW 3.6 mph 6.9 mph 67% 0 in CLR
07:25 48.6 °F 38.1 °F 29.6 in WSW 3.6 mph 4.6 mph 67% 0 in CLR
07:30 48.6 °F 37.8 °F 29.6 in SSW 3.6 mph 6.9 mph 66% 0 in CLR
07:35 48.9 °F 37.8 °F 29.6 in SSW 3.6 mph 8.1 mph 65% 0 in CLR
07:40 49.3 °F 37.6 °F 29.6 in WSW 5.2 mph 5.9 mph 64% 0 in CLR
07:45 49.5 °F 37.8 °F 29.6 in West 5.2 mph 4.6 mph 64% 0 in CLR
07:50 49.3 °F 37.6 °F 29.6 in SW 3.1 mph 4.6 mph 64% 0 in CLR
07:55 49.3 °F 37.9 °F 29.6 in SW 3.1 mph 2.3 mph 65% 0 in CLR
08:00 48.9 °F 38.1 °F 29.6 in West 2 mph 5 mph 66% 0 in CLR
08:05 48.4 °F 38.3 °F 29.7 in NW 2.9 mph   68% 0 in CLR
08:10 48.2 °F 38.5 °F 29.7 in ESE 1.8 mph 4.6 mph 69% 0 in CLR
08:15 48.4 °F 38.7 °F 29.7 in ESE 1.8 mph 4.3 mph 69% 0 in CLR
08:20 48.4 °F 38.3 °F 29.7 in SSW 2 mph 4.6 mph 68% 0 in CLR
08:25 48.2 °F 38.1 °F 29.7 in SSE 2 mph 5.8 mph 68% 0 in CLR
08:30 48.4 °F 38.3 °F 29.7 in SSE 4 mph 4.6 mph 68% 0 in CLR
08:35 48.6 °F 38.5 °F 29.7 in SSE 4 mph 4.7 mph 68% 0 in CLR
08:40 48.7 °F 38.3 °F 29.7 in SSE 3.6 mph 6.9 mph 67% 0 in CLR
08:45 48.9 °F 38.5 °F 29.7 in SSE 3.6 mph 4.6 mph 67% 0 in CLR
08:50 49.3 °F 38.5 °F 29.7 in South 3.6 mph 4.6 mph 66% 0 in CLR
08:55 49.6 °F 38.3 °F 29.7 in SSE 3.6 mph 4.7 mph 65% 0 in CLR
09:00 50.2 °F 38.8 °F 29.7 in SSE 3 mph 5 mph 65% 0 in CLR
09:05 50.5 °F 39.6 °F 29.7 in South 3.6 mph 3.5 mph 66% 0 in CLR
09:10 51.1 °F 39.4 °F 29.7 in SSE 2.4 mph 3.5 mph 64% 0 in CLR
09:15 51.4 °F 38.8 °F 29.7 in SSE 2.4 mph 2.3 mph 62% 0 in CLR
09:20 52.2 °F 39.6 °F 29.7 in SSE 1.8 mph   62% 0 in CLR
09:25 52.9 °F 38.8 °F 29.7 in SW 1.8 mph 2.3 mph 59% 0 in CLR
09:30 53.1 °F 38.1 °F 29.7 in SW 1.8 mph 2.3 mph 57% 0 in CLR
09:35 53.2 °F 37.6 °F 29.7 in SSW 1.8 mph 4.6 mph 55% 0 in CLR
09:40 53.6 °F 37.2 °F 29.7 in SSW 2 mph 5.8 mph 54% 0 in CLR
09:45 53.8 °F 36.7 °F 29.7 in SW 2 mph 8.1 mph 52% 0 in CLR
09:50 54 °F 36.7 °F 29.7 in WNW 4 mph 4.6 mph 52% 0 in CLR
09:55 54.1 °F 36.9 °F 29.7 in NW 4 mph 2.3 mph 52% 0 in CLR
10:00 54.9 °F 37 °F 29.7 in WNW 2 mph 6 mph 51% 0 in CLR
10:05 55.2 °F 36.3 °F 29.7 in South 2 mph   49% 0 in CLR
10:10 55.8 °F 36.3 °F 29.7 in SSE 1.8 mph 2.3 mph 48% 0 in CLR
10:15 56.5 °F 39 °F 29.7 in East 1.8 mph 2.3 mph 52% 0 in CLR
10:20 56.8 °F 39.4 °F 29.7 in North 1.8 mph 3.5 mph 52% 0 in CLR
10:25 57.4 °F 39.4 °F 29.7 in NE 1.8 mph 4.6 mph 51% 0 in CLR
10:30 57.2 °F 38.1 °F 29.7 in NE 2.4 mph 5.8 mph 49% 0 in CLR
10:35 57 °F 38.5 °F 29.7 in NNE 2.4 mph 3.5 mph 50% 0 in CLR
10:40 57.2 °F 39.2 °F 29.7 in ESE 2.4 mph 3.5 mph 51% 0 in CLR
10:45 57.6 °F 37.9 °F 29.7 in SSE 2.4 mph 4.6 mph 48% 0 in CLR
10:50 57.7 °F 37.6 °F 29.7 in SSE 2.4 mph 5.8 mph 47% 0 in CLR
10:55 57.7 °F 37 °F 29.7 in SE 2.4 mph 6.9 mph 46% 0 in CLR
11:00 57.7 °F 36.5 °F 29.7 in SSE 5 mph 7 mph 45% 0 in CLR
11:05 57.9 °F 36.1 °F 29.7 in SSE 4 mph 8.1 mph 44% 0 in CLR
11:10 58.3 °F 36.3 °F 29.7 in South 3.1 mph 8.5 mph 44% 0 in CLR
11:15 58.5 °F 36.7 °F 29.7 in East 3.1 mph 3.5 mph 44% 0 in CLR
11:20 59 °F 36.5 °F 29.7 in SE 3.1 mph 8.1 mph 43% 0 in CLR
11:25 59 °F 36.5 °F 29.7 in ESE 3.1 mph 7.4 mph 43% 0 in CLR
11:30 59.4 °F 36.1 °F 29.7 in SSE 5.2 mph 6.9 mph 42% 0 in CLR
11:35 59.4 °F 36.1 °F 29.7 in SSW 5.2 mph 3.1 mph 42% 0 in CLR
11:40 59.5 °F 36.3 °F 29.7 in NE 3.6 mph 5.8 mph 42% 0 in CLR
11:45 59.7 °F 36 °F 29.7 in West 3.6 mph 5.8 mph 41% 0 in CLR
11:50 60.1 °F 36.3 °F 29.7 in East 3.1 mph 9.2 mph 41% 0 in CLR
11:55 60.3 °F 36.3 °F 29.7 in South 3.1 mph 6.2 mph 41% 0 in CLR
12:00 60.6 °F 36.7 °F 29.7 in SE 5 mph 7 mph 41% 0 in CLR
12:05 60.8 °F 36.3 °F 29.7 in West 5.2 mph 9.2 mph 40% 0 in CLR
12:10 61 °F 36.5 °F 29.7 in West 4.3 mph 2.4 mph 40% 0 in CLR
12:15 60.6 °F 36.1 °F 29.7 in SW 4.3 mph 9.2 mph 40% 0 in CLR
12:20 61 °F 35.8 °F 29.7 in SSW 5.2 mph 9.2 mph 39% 0 in CLR
12:25 61.3 °F 35.4 °F 29.7 in NW 5.2 mph 4 mph 38% 0 in CLR
12:30 61.3 °F 34.9 °F 29.7 in NE 5.2 mph 4.6 mph 37% 0 in CLR
12:35 61.5 °F 35.1 °F 29.7 in SSE 5.2 mph 5.8 mph 37% 0 in CLR
12:40 61.9 °F 36 °F 29.7 in SSE 4 mph 5.8 mph 38% 0 in CLR
12:45 62.1 °F 35.4 °F 29.7 in ESE 4 mph 4.6 mph 37% 0 in CLR
12:50 62.2 °F 35.6 °F 29.7 in SSE 4 mph 11.5 mph 37% 0 in CLR
12:55 62.4 °F 35.8 °F 29.7 in SW 4 mph 16.1 mph 37% 0 in CLR
13:00 62.8 °F 36.1 °F 29.7 in WSW 8 mph 12 mph 37% 0 in CLR
13:05 63.1 °F 35.8 °F 29.7 in West 7.6 mph 6.9 mph 36% 0 in CLR
13:10 63.3 °F 36 °F 29.7 in South 3.1 mph 8.1 mph 36% 0 in CLR
13:15 63.5 °F 36 °F 29.7 in SW 3.1 mph 8.1 mph 36% 0 in CLR
13:20 63.3 °F 35.2 °F 29.7 in SSW 4.7 mph 9.2 mph 35% 0 in CLR
13:25 63 °F 35.6 °F 29.7 in SSW 4.7 mph 10.4 mph 36% 0 in CLR
13:30 63 °F 34.2 °F 29.7 in South 6.4 mph 10.4 mph 34% 0 in CLR
13:35 63 °F 34.9 °F 29.7 in SW 6.4 mph 5.4 mph 35% 0 in CLR
13:40 63 °F 34.9 °F 29.7 in SSE 4 mph 4.6 mph 35% 0 in CLR
13:45 63.3 °F 35.2 °F 29.7 in SW 4 mph 10.4 mph 35% 0 in CLR
13:50 63.5 °F 35.2 °F 29.6 in South 4.7 mph 5.8 mph 35% 0 in CLR
13:55 63.7 °F 34.9 °F 29.6 in SSW 4.7 mph 13 mph 34% 0 in CLR
14:00 63.9 °F 34.9 °F 29.6 in SSW 6 mph 13 mph 34% 0 in CLR
14:05 63.7 °F 34.9 °F 29.6 in SSW 5.9 mph 9.2 mph 34% 0 in CLR
14:10 63.9 °F 34.9 °F 29.6 in SSE 8.1 mph 10.4 mph 34% 0 in CLR
14:15 63.7 °F 37.6 °F 29.6 in SSE 8.1 mph 8.1 mph 38% 0 in CLR
14:20 63.3 °F 37.9 °F 29.6 in SSE 6.4 mph 5.8 mph 39% 0 in CLR
14:25 62.8 °F 38.1 °F 29.6 in South 6.4 mph 6.9 mph 40% 0 in CLR
14:30 62.8 °F 36.9 °F 29.6 in SW 5.9 mph 21.9 mph 38% 0 in CLR
14:35 61.3 °F 39.7 °F 29.6 in WNW 5.9 mph 8.7 mph 45% 0 in CLR
14:40 60.4 °F 39.6 °F 29.6 in NW 8.7 mph 16.1 mph 46% 0 in CLR
14:45 58.8 °F 40.3 °F 29.6 in WNW 8.7 mph 25.3 mph 50% 0.02 in RA
14:50 56.7 °F 43 °F 29.7 in WSW 14.5 mph 26.5 mph 60% 0.04 in RA
14:55 55.4 °F 44.2 °F 29.7 in SW 14.5 mph 10.4 mph 66% 0.05 in RA
15:00 55 °F 44.8 °F 29.7 in West 9 mph 13 mph 68% 0 in RA
15:05 55.2 °F 43.7 °F 29.7 in West 9.7 mph 9.2 mph 65% 0.05 in
15:10 55.8 °F 45.3 °F 29.7 in WNW 5.4 mph 4.6 mph 68% 0.05 in CLR
15:15 56.3 °F 45.1 °F 29.7 in WSW 5.4 mph 3.5 mph 66% 0.05 in CLR
15:20 57.4 °F 45.3 °F 29.7 in West 2.4 mph 5.8 mph 64% 0.05 in CLR
15:25 58.5 °F 41.4 °F 29.7 in SW 2.4 mph 6.4 mph 53% 0.05 in CLR
15:30 59.4 °F 41.2 °F 29.7 in SSW 4.3 mph 9.2 mph 51% 0.05 in CLR
15:35 60.3 °F 45 °F 29.7 in SSE 4.3 mph 13.8 mph 57% 0.05 in CLR
15:40 59.9 °F 43.7 °F 29.7 in SSW 6.4 mph 6.9 mph 55% 0.05 in CLR
15:45 60.1 °F 43.9 °F 29.7 in WSW 6.4 mph 11.5 mph 55% 0.03 in CLR
15:50 60.1 °F 42.4 °F 29.7 in SSW 6.2 mph 6.9 mph 52% 0.01 in CLR
15:55 60.4 °F 43.2 °F 29.7 in SSE 6.2 mph 6.4 mph 53% 0 in CLR
16:00 60.4 °F 41.7 °F 29.7 in South 5 mph 7 mph 50% 0 in CLR
16:05 60.8 °F 42.1 °F 29.6 in South 4.7 mph 8.1 mph 50% 0 in CLR
16:10 61.3 °F 39.7 °F 29.6 in SSW 5.9 mph 10.4 mph 45% 0 in CLR
16:15 61.5 °F 40.5 °F 29.6 in SSW 5.9 mph 10.4 mph 46% 0 in CLR
16:20 61.9 °F 40.3 °F 29.6 in South 7.4 mph 12.7 mph 45% 0 in CLR
16:25 61.9 °F 39.7 °F 29.6 in SSW 7.4 mph 10.4 mph 44% 0 in CLR
16:30 61.9 °F 39.7 °F 29.6 in SSW 7.4 mph 9.2 mph 44% 0 in CLR
16:35 62.1 °F 39.9 °F 29.6 in South 7.4 mph 9.2 mph 44% 0.01 in RA
16:40 61.9 °F 40.3 °F 29.6 in South 6.2 mph 9.2 mph 45% 0.02 in RA
16:45 61.3 °F 40.8 °F 29.6 in SE 6.2 mph 6.9 mph 47% 0.02 in RA
16:50 61.3 °F 40.5 °F 29.6 in South 5.2 mph 8.1 mph 46% 0.02 in CLR
16:55 61.3 °F 40.8 °F 29.6 in SSW 5.2 mph 9.2 mph 47% 0.02 in CLR
17:00 61.3 °F 41.5 °F 29.6 in South 5 mph 8 mph 48% 0 in
17:05 61.9 °F 42.1 °F 29.6 in SSE 5.2 mph 8.1 mph 48% 0.02 in CLR
17:10 61.9 °F 42.1 °F 29.6 in South 6.9 mph 12.7 mph 48% 0.03 in RA
17:15 61.3 °F 42.1 °F 29.6 in SSW 6.9 mph 18.5 mph 49% 0.03 in RA
17:20 60.4 °F 40.6 °F 29.6 in SSE 9.2 mph 13.8 mph 48% 0.04 in RA
17:25 59.9 °F 42.3 °F 29.6 in WNW 9.2 mph 9.2 mph 52% 0.05 in RA
17:30 59.5 °F 41.4 °F 29.6 in NW 7.6 mph 27.6 mph 51% 0.06 in RA
17:35 58.5 °F 42.8 °F 29.6 in North 7.6 mph 10.4 mph 56% 0.06 in RA
17:40 58.1 °F 43.9 °F 29.6 in North 11.2 mph 4.6 mph 59% 0.05 in RA
17:45 57.9 °F 43.2 °F 29.6 in NNE 11.2 mph 2.3 mph 58% 0.05 in
17:50 58.1 °F 43.9 °F 29.6 in NNE 2 mph 2.9 mph 59% 0.05 in CLR
17:55 58.3 °F 41.7 °F 29.6 in SSW 2 mph 6.9 mph 54% 0.05 in CLR
18:00 58.6 °F 43 °F 29.6 in NW 2 mph 7 mph 56% 0 in
18:05 58.8 °F 43.2 °F 29.6 in NW 2.9 mph 11.5 mph 56% 0.05 in CLR
18:10 59.2 °F 41.5 °F 29.6 in NNW 5.9 mph 15 mph 52% 0.04 in CLR
18:15 59.4 °F 41.7 °F 29.6 in NNW 5.9 mph 11.5 mph 52% 0.04 in CLR
18:20 59.4 °F 42.3 °F 29.6 in NNW 7.6 mph 8.1 mph 53% 0.03 in CLR
18:25 59.5 °F 41.9 °F 29.6 in NNW 7.6 mph 11.5 mph 52% 0.02 in CLR
18:30 59.4 °F 42.3 °F 29.6 in WNW 5.2 mph 10.4 mph 53% 0.01 in CLR
18:35 59.4 °F 41.7 °F 29.7 in NNW 5.2 mph 4.6 mph 52% 0 in CLR
18:40 59.4 °F 41.2 °F 29.7 in NNW 4.7 mph 5.8 mph 51% 0 in CLR
18:45 59.2 °F 41.2 °F 29.7 in NNW 4.7 mph 10.4 mph 51% 0 in CLR
18:50 59 °F 40.5 °F 29.7 in NNW 4.7 mph 5.8 mph 50% 0 in CLR
18:55 58.8 °F 40.3 °F 29.7 in ENE 4.7 mph 4.6 mph 50% 0 in CLR
19:00 58.8 °F 40.6 °F 29.7 in NE 2 mph 5 mph 51% 0 in CLR
19:05 58.8 °F 40.6 °F 29.7 in ESE 2.9 mph 4.6 mph 51% 0 in CLR
19:10 58.8 °F 41.7 °F 29.7 in ESE 2.4 mph 4.6 mph 53% 0 in CLR
19:15 58.8 °F 42.3 °F 29.7 in East 2.4 mph 8.1 mph 54% 0 in CLR
19:20 58.6 °F 43.9 °F 29.7 in ESE 4 mph 6.9 mph 58% 0 in CLR
19:25 58.5 °F 45.1 °F 29.7 in ESE 4 mph 4.6 mph 61% 0 in CLR
19:30 58.5 °F 45.1 °F 29.7 in ESE 3.1 mph 3.5 mph 61% 0 in CLR
19:35 58.3 °F 43.2 °F 29.7 in ESE 3.1 mph 3.5 mph 57% 0 in CLR
19:40 58.3 °F 44.4 °F 29.7 in SE 2 mph 4.6 mph 60% 0 in CLR
19:45 58.3 °F 45.7 °F 29.7 in SE 2 mph 3.5 mph 63% 0 in CLR
19:50 58.5 °F 46.2 °F 29.7 in SE 2.4 mph 2.9 mph 64% 0 in CLR
19:55 58.3 °F 45.3 °F 29.7 in SE 2.4 mph 4 mph 62% 0 in CLR
20:00 58.3 °F 45.7 °F 29.7 in SE 2 mph 5 mph 63% 0 in CLR
20:05 57.9 °F 45.3 °F 29.7 in WSW 1.8 mph 4.6 mph 63% 0 in CLR
20:10 57.9 °F 45.3 °F 29.7 in WSW 2.4 mph 3.5 mph 63% 0 in CLR
20:15 57.9 °F 44.4 °F 29.7 in WNW 2.4 mph 4.6 mph 61% 0 in CLR
20:20 57.9 °F 44.4 °F 29.7 in WNW 2 mph 4.6 mph 61% 0 in CLR
20:25 57.7 °F 43.2 °F 29.7 in WSW 2 mph 4.6 mph 58% 0 in CLR
20:30 57.7 °F 43.5 °F 29.7 in SSW 3.1 mph 4.6 mph 59% 0 in CLR
20:35 57.9 °F 45.3 °F 29.7 in SSE 3.1 mph 3.6 mph 63% 0 in CLR
20:40 57.7 °F 46 °F 29.7 in SW 2.9 mph 5.4 mph 65% 0 in CLR
20:45 57.6 °F 44.2 °F 29.7 in SSE 2.9 mph 4.6 mph 61% 0 in CLR
20:50 57.6 °F 45.1 °F 29.7 in SSE 3.1 mph 5.8 mph 63% 0 in CLR
20:55 57.4 °F 42.6 °F 29.7 in SSW 3.1 mph 8.1 mph 58% 0 in CLR
21:00 57.4 °F 42.6 °F 29.7 in SSW 5 mph 11 mph 58% 0 in CLR
21:05 57 °F 42.8 °F 29.7 in WSW 4.7 mph 6.9 mph 59% 0 in CLR
21:10 57 °F 41 °F 29.7 in SSW 4.7 mph 8.1 mph 55% 0 in CLR
21:15 57.2 °F 40.6 °F 29.7 in SW 4.7 mph 6.9 mph 54% 0 in CLR
21:20 57.4 °F 38.5 °F 29.7 in SW 5.2 mph 9.2 mph 49% 0 in CLR
21:25 57.6 °F 37.9 °F 29.7 in West 5.2 mph 9.7 mph 48% 0 in CLR
21:30 57.6 °F 37.9 °F 29.7 in WNW 6.2 mph 15 mph 48% 0 in CLR
21:35 57.4 °F 38.5 °F 29.7 in WSW 6.2 mph 13.8 mph 49% 0 in CLR
21:40 57.2 °F 38.1 °F 29.7 in WSW 7.6 mph 8.1 mph 49% 0 in CLR
21:45 57 °F 38.5 °F 29.7 in WSW 7.6 mph 8.1 mph 50% 0 in CLR
21:50 57 °F 37.9 °F 29.7 in SW 5.9 mph 19.6 mph 49% 0 in CLR
21:55 56.8 °F 37.9 °F 29.7 in West 5.9 mph 10.4 mph 49% 0 in CLR
22:00 56.8 °F 37.9 °F 29.7 in WSW 8 mph 14 mph 49% 0 in CLR
22:05 56.7 °F 37.8 °F 29.7 in WSW 8.1 mph 12.7 mph 49% 0 in CLR
22:10 56.7 °F 37.8 °F 29.7 in WSW 8.1 mph 9.2 mph 49% 0 in CLR
22:15 56.7 °F 38.1 °F 29.7 in SSW 8.1 mph 10.4 mph 50% 0 in CLR
22:20 56.5 °F 38.7 °F 29.7 in WSW 6.4 mph 9.2 mph 51% 0 in CLR
22:25 56.3 °F 38.8 °F 29.7 in West 6.4 mph 11.5 mph 52% 0 in CLR
22:30 56.3 °F 38.8 °F 29.7 in West 5.9 mph 9.2 mph 52% 0 in CLR
22:35 56.1 °F 39.2 °F 29.7 in West 5.9 mph 10.4 mph 53% 0 in CLR
22:40 56.1 °F 39.2 °F 29.7 in SW 5.4 mph 8.1 mph 53% 0 in CLR
22:45 55.9 °F 39 °F 29.7 in SW 5.4 mph 8.1 mph 53% 0 in CLR
22:50 55.9 °F 38.7 °F 29.7 in SW 6.2 mph 11.5 mph 52% 0 in CLR
22:55 55.9 °F 38.7 °F 29.7 in SW 6.2 mph 6.9 mph 52% 0 in CLR
23:00 55.9 °F 38.1 °F 29.7 in WSW 6 mph 10 mph 51% 0 in CLR
23:05 55.9 °F 37.6 °F 29.7 in West 5.4 mph 9.7 mph 50% 0 in CLR
23:10 55.9 °F 37.6 °F 29.7 in SW 5.4 mph 10 mph 50% 0 in CLR
23:15 55.9 °F 38.1 °F 29.7 in SW 5.4 mph 9.2 mph 51% 0 in CLR
23:20 55.8 °F 38.5 °F 29.7 in SW 6.4 mph 10.4 mph 52% 0 in CLR
23:25 55.8 °F 38.5 °F 29.7 in SSW 6.4 mph 9.2 mph 52% 0 in CLR
23:30 55.6 °F 38.7 °F 29.7 in SW 6.4 mph 8.1 mph 53% 0 in CLR
23:35 55.6 °F 38.7 °F 29.7 in SSW 6.4 mph 9.2 mph 53% 0 in CLR
23:40 55.4 °F 39 °F 29.7 in South 6.2 mph 8.1 mph 54% 0 in CLR
23:45 55.2 °F 38.8 °F 29.7 in South 6.2 mph 9.2 mph 54% 0 in CLR
23:50 55.2 °F 38.8 °F 29.7 in SSW 6.2 mph 9.2 mph 54% 0 in CLR
23:55 55.2 °F 38.5 °F 29.7 in SSW 6.2 mph 12.7 mph 53% 0 in CLR
Murcia-Puente Tocinos, España
Compliments of Weather Underground - 2.75 mb

La estación de MeteoMurcia.com, publica sus datos en los siguientes proyectos:

Weather Underground PWS IMURCIAP2 Meteoclimatic www.awekas.at

W3Counter
Web Analytics